Terminal Aerodrome Forecast
Issued by NWS

Home | Current Version | Previous Version | Text Only | Print | Product List | Glossary On
Versions: 1 2 3 4 5 6 7 8 9 10 11 12 13 14 15 16 17
000
FTUS42 TJSJ 210500
TAFIST
TAF
TIST 210524Z 2106/2206 09006KT P6SM FEW025 SCT035 BKN045
     FM211200 13013KT P6SM SCT030
     FM212300 10008KT P6SM FEW025=

USA.gov is the U.S. government's official web portal to all federal, state and local government web resources and services.